Time;durP1;ratioP1;P1;durP2;ratioP2;P2;SDS_P1;SDS_P2;PMS_P1;PMS_P2;Temp;Humidity;BMP_temperature;BMP_pressure;BME280_temperature;BME280_humidity;BME280_pressure;Samples;Min_cycle;Max_cycle;Signal;HPM_P1;HPM_P2
2022/09/01 00:01:46;;;;;;;31.20;18.67;;;14.50;99.90;;;;;;5035283;28;20503;-47
2022/09/01 00:04:16;;;;;;;37.10;21.13;;;14.50;99.90;;;;;;5028987;28;20060;-47
2022/09/01 00:06:43;;;;;;;35.90;20.02;;;14.50;99.90;;;;;;5034685;28;20103;-47
2022/09/01 00:09:13;;;;;;;33.25;20.33;;;14.50;99.90;;;;;;5034804;28;20080;-49
2022/09/01 00:11:43;;;;;;;34.35;19.92;;;14.50;99.90;;;;;;5038274;28;20071;-48
2022/09/01 00:14:19;;;;;;;32.72;19.13;;;14.50;99.90;;;;;;5036563;28;20096;-49
2022/09/01 00:17:02;;;;;;;34.70;19.73;;;14.50;99.90;;;;;;5034200;28;20049;-47
2022/09/01 00:19:32;;;;;;;32.70;19.08;;;14.50;99.90;;;;;;5015893;28;20056;-48
2022/09/01 00:21:59;;;;;;;36.85;20.83;;;14.50;99.90;;;;;;5034534;28;20041;-47
2022/09/01 00:24:27;;;;;;;34.75;19.90;;;14.50;99.90;;;;;;5033935;28;20052;-48
2022/09/01 00:26:55;;;;;;;35.88;20.48;;;14.50;99.90;;;;;;5033654;28;20045;-47
2022/09/01 00:29:24;;;;;;;37.95;20.15;;;14.50;99.90;;;;;;5034508;28;20153;-48
2022/09/01 00:31:52;;;;;;;35.78;19.75;;;14.50;99.90;;;;;;5015842;28;20060;-47
2022/09/01 00:34:19;;;;;;;33.20;19.83;;;14.50;99.90;;;;;;5016716;28;20042;-49
2022/09/01 00:36:47;;;;;;;33.67;19.45;;;14.50;99.90;;;;;;5013009;28;20045;-47
2022/09/01 00:39:14;;;;;;;34.70;20.02;;;14.50;99.90;;;;;;5017050;28;20091;-47
2022/09/01 00:41:43;;;;;;;35.55;20.02;;;14.50;99.90;;;;;;5023059;28;20093;-47
2022/09/01 00:44:14;;;;;;;36.58;19.75;;;14.50;99.90;;;;;;5014734;28;20048;-47
2022/09/01 00:46:48;;;;;;;38.03;20.70;;;14.50;99.90;;;;;;5041204;28;20060;-47
2022/09/01 00:49:35;;;;;;;33.08;20.63;;;14.50;99.90;;;;;;5044223;28;20064;-47
2022/09/01 00:52:20;;;;;;;31.95;19.50;;;14.50;99.90;;;;;;5035216;28;20509;-47
2022/09/01 00:54:56;;;;;;;35.28;20.60;;;14.50;99.90;;;;;;5025309;28;20065;-47
2022/09/01 00:57:24;;;;;;;33.95;20.58;;;14.50;99.90;;;;;;5007265;28;20525;-49
2022/09/01 00:59:58;;;;;;;33.88;19.95;;;14.50;99.90;;;;;;5030799;28;20045;-47
2022/09/01 01:02:25;;;;;;;38.83;20.95;;;14.50;99.90;;;;;;5016611;28;20053;-49
2022/09/01 01:04:54;;;;;;;;;;;14.50;99.90;;;;;;5033195;28;20482;-48
2022/09/01 01:07:21;;;;;;;35.20;19.70;;;14.50;99.90;;;;;;5032618;28;19921;-49
2022/09/01 01:09:49;;;;;;;35.33;21.70;;;14.50;99.90;;;;;;5016020;28;20565;-47
2022/09/01 01:12:17;;;;;;;36.67;21.83;;;14.50;99.90;;;;;;5026408;28;20045;-47
2022/09/01 01:14:49;;;;;;;41.72;20.90;;;14.50;99.90;;;;;;5033422;28;20045;-47
2022/09/01 01:17:19;;;;;;;39.00;21.33;;;14.50;99.90;;;;;;5024743;28;20076;-48
2022/09/01 01:23:12;;;;;;;37.85;21.80;;;14.50;99.90;;;;;;5015877;28;20513;-48
2022/09/01 01:25:43;;;;;;;;;;;14.50;99.90;;;;;;5015773;28;20080;-47
2022/09/01 01:28:15;;;;;;;42.10;21.98;;;14.40;99.90;;;;;;5024219;28;19921;-47
2022/09/01 01:30:51;;;;;;;36.22;22.73;;;14.50;99.90;;;;;;5015737;28;20046;-47
2022/09/01 01:33:24;;;;;;;41.08;22.88;;;14.50;99.90;;;;;;5033015;28;20052;-48
2022/09/01 01:35:52;;;;;;;43.80;24.77;;;14.40;99.90;;;;;;5015653;28;20045;-52
2022/09/01 01:38:21;;;;;;;46.88;23.40;;;14.40;99.90;;;;;;5026411;28;20476;-48
2022/09/01 01:40:52;;;;;;;42.67;23.58;;;14.40;99.90;;;;;;5042391;28;20505;-49
2022/09/01 01:43:22;;;;;;;42.40;23.17;;;14.40;99.90;;;;;;5008935;28;20426;-48
2022/09/01 01:45:51;;;;;;;42.92;24.45;;;14.40;99.90;;;;;;5031408;28;20072;-50
2022/09/01 01:48:23;;;;;;;44.20;24.35;;;14.40;99.90;;;;;;5014916;28;20053;-47
2022/09/01 01:50:53;;;;;;;44.00;23.40;;;14.40;99.90;;;;;;5010613;28;20056;-47
2022/09/01 01:53:22;;;;;;;40.97;22.73;;;14.40;99.90;;;;;;5032805;28;20387;-48
2022/09/01 01:55:49;;;;;;;42.67;23.75;;;14.30;99.90;;;;;;5014283;28;20065;-47
2022/09/01 01:58:19;;;;;;;41.05;22.17;;;14.30;99.90;;;;;;5032430;28;20490;-48
2022/09/01 02:00:49;;;;;;;38.85;21.30;;;14.30;99.90;;;;;;5015289;28;20037;-49
2022/09/01 02:03:37;;;;;;;40.60;22.65;;;14.30;99.90;;;;;;5013855;28;20509;-48
2022/09/01 02:06:08;;;;;;;41.08;21.85;;;14.30;99.90;;;;;;5014828;28;20115;-47
2022/09/01 02:08:37;;;;;;;38.45;21.38;;;14.30;99.90;;;;;;5013450;28;20054;-47
2022/09/01 02:11:06;;;;;;;41.47;22.10;;;14.30;99.90;;;;;;4998551;28;20429;-48
2022/09/01 02:13:34;;;;;;;38.60;20.52;;;14.30;99.90;;;;;;5031126;28;20037;-50
2022/09/01 02:16:06;;;;;;;38.92;21.40;;;14.30;99.90;;;;;;5013088;28;20435;-50
2022/09/01 02:18:36;;;;;;;41.80;21.48;;;14.20;99.90;;;;;;5018909;28;20147;-49
2022/09/01 02:21:09;;;;;;;45.22;22.70;;;14.20;99.90;;;;;;5052050;28;20076;-47
2022/09/01 02:23:43;;;;;;;44.17;23.15;;;14.20;99.90;;;;;;5014691;28;20041;-48
2022/09/01 02:26:10;;;;;;;41.03;22.17;;;14.10;99.90;;;;;;5008705;28;20049;-48
2022/09/01 02:28:45;;;;;;;41.85;22.38;;;14.10;99.90;;;;;;5032320;28;20064;-47
2022/09/01 02:31:20;;;;;;;42.03;22.38;;;14.10;99.90;;;;;;5014859;28;20041;-47
2022/09/01 02:33:47;;;;;;;47.30;23.77;;;14.10;99.90;;;;;;5012963;28;20076;-47
2022/09/01 02:36:18;;;;;;;48.00;24.90;;;14.10;99.90;;;;;;5030703;28;20041;-47
2022/09/01 02:38:47;;;;;;;43.55;22.48;;;14.10;99.90;;;;;;5032166;28;20048;-48
2022/09/01 02:41:22;;;;;;;41.38;23.02;;;14.10;99.90;;;;;;5013213;28;20391;-50
2022/09/01 02:43:49;;;;;;;42.67;23.40;;;14.10;99.90;;;;;;5014122;28;20045;-48
2022/09/01 02:46:17;;;;;;;41.03;21.80;;;14.10;99.90;;;;;;5014447;28;20044;-47
2022/09/01 02:48:44;;;;;;;40.78;22.27;;;14.10;99.90;;;;;;5030276;28;20382;-47
2022/09/01 02:51:17;;;;;;;42.22;23.02;;;14.10;99.90;;;;;;5030483;28;20053;-48
2022/09/01 02:53:47;;;;;;;39.92;21.67;;;14.10;99.90;;;;;;5031471;28;20037;-48
2022/09/01 02:56:15;;;;;;;41.30;21.25;;;14.10;99.90;;;;;;5013614;28;20406;-48
2022/09/01 02:58:44;;;;;;;43.35;21.30;;;14.10;99.90;;;;;;5012850;28;20041;-48
2022/09/01 03:01:20;;;;;;;40.67;21.83;;;14.10;99.90;;;;;;5030702;28;20042;-50
2022/09/01 03:03:49;;;;;;;40.70;21.20;;;14.10;99.90;;;;;;5013480;28;20073;-47
2022/09/01 03:06:18;;;;;;;43.17;22.38;;;14.10;99.90;;;;;;5008136;28;20053;-47
2022/09/01 03:08:47;;;;;;;38.63;20.95;;;14.00;99.90;;;;;;5013948;28;20132;-48
2022/09/01 03:11:13;;;;;;;42.75;21.45;;;14.00;99.90;;;;;;5012257;28;20041;-47
2022/09/01 03:13:41;;;;;;;38.88;21.98;;;14.00;99.90;;;;;;5013404;28;20037;-47
2022/09/01 03:16:09;;;;;;;36.45;20.92;;;14.00;99.90;;;;;;5030909;28;20046;-47
2022/09/01 03:18:37;;;;;;;37.03;20.75;;;13.90;99.90;;;;;;5031258;28;20064;-47
2022/09/01 03:21:07;;;;;;;33.65;20.60;;;13.90;99.90;;;;;;5012247;28;20045;-47
2022/09/01 03:23:34;;;;;;;37.83;20.55;;;13.90;99.90;;;;;;5028872;28;20060;-47
2022/09/01 03:26:01;;;;;;;35.50;20.77;;;13.90;99.90;;;;;;5030580;28;20119;-47
2022/09/01 03:28:28;;;;;;;;;;;13.90;99.90;;;;;;5031001;28;20478;-48
2022/09/01 03:30:57;;;;;;;35.83;20.23;;;13.90;99.90;;;;;;5011265;28;19920;-48
2022/09/01 03:33:26;;;;;;;38.85;21.42;;;13.90;99.90;;;;;;5013359;28;20556;-48
2022/09/01 03:35:55;;;;;;;39.55;21.95;;;13.90;99.90;;;;;;5011510;28;20042;-48
2022/09/01 03:38:24;;;;;;;40.97;21.67;;;13.90;99.90;;;;;;5013411;28;20120;-47
2022/09/01 03:40:59;;;;;;;41.75;22.20;;;13.90;99.90;;;;;;5012314;28;20049;-47
2022/09/01 03:43:32;;;;;;;41.70;21.92;;;13.90;99.90;;;;;;5013164;28;20049;-49
2022/09/01 03:46:02;;;;;;;43.05;21.20;;;13.90;99.90;;;;;;5011846;28;20047;-47
2022/09/01 03:48:30;;;;;;;44.80;24.40;;;13.90;99.90;;;;;;5021922;28;20115;-48
2022/09/01 03:51:01;;;;;;;43.95;23.08;;;13.90;99.90;;;;;;5013203;28;20492;-48
2022/09/01 03:53:34;;;;;;;42.53;22.35;;;14.00;99.90;;;;;;5012860;28;20529;-48
2022/09/01 03:56:03;;;;;;;45.78;23.65;;;14.00;99.90;;;;;;5022573;28;20068;-47
2022/09/01 03:58:31;;;;;;;49.97;23.88;;;14.00;99.90;;;;;;5009988;28;20129;-50
2022/09/01 04:01:01;;;;;;;43.75;24.42;;;14.00;99.90;;;;;;5026012;28;20038;-48
2022/09/01 04:03:31;;;;;;;47.05;24.10;;;14.00;99.90;;;;;;5030821;28;20475;-49
2022/09/01 04:06:01;;;;;;;44.83;24.30;;;14.00;99.90;;;;;;5027226;28;20489;-47
2022/09/01 04:08:29;;;;;;;47.80;24.73;;;14.00;99.90;;;;;;5002384;28;20045;-48
2022/09/01 04:11:12;;;;;;;49.35;23.63;;;13.90;99.90;;;;;;5013170;28;20034;-47
2022/09/01 04:13:41;;;;;;;47.83;23.80;;;13.90;99.90;;;;;;5012651;28;20037;-48
2022/09/01 04:18:08;;;;;;;48.40;24.20;;;13.90;99.90;;;;;;5009237;28;20050;-49
2022/09/01 04:19:14;;;;;;;42.60;23.00;;;13.80;99.90;;;;;;5012871;28;20041;-48
2022/09/01 04:21:42;;;;;;;44.23;24.03;;;13.80;99.90;;;;;;5025130;28;20141;-47
2022/09/01 04:24:14;;;;;;;46.50;24.83;;;13.70;99.90;;;;;;5012742;28;20292;-47
2022/09/01 04:26:46;;;;;;;46.60;23.63;;;13.70;99.90;;;;;;5011194;28;20501;-49
2022/09/01 04:29:18;;;;;;;46.67;24.08;;;13.70;99.90;;;;;;5011247;28;20044;-48
2022/09/01 04:31:52;;;;;;;42.65;23.92;;;13.70;99.90;;;;;;5003471;28;20068;-47
2022/09/01 04:34:21;;;;;;;42.63;23.08;;;13.60;99.90;;;;;;5010454;28;20049;-47
2022/09/01 04:36:54;;;;;;;45.10;23.75;;;13.70;99.90;;;;;;5013170;28;20557;-47
2022/09/01 04:39:22;;;;;;;41.90;22.25;;;13.70;99.90;;;;;;5014132;28;20510;-47
2022/09/01 04:41:49;;;;;;;47.17;22.73;;;13.70;99.90;;;;;;5016362;28;20076;-48
2022/09/01 04:44:17;;;;;;;39.78;21.70;;;13.70;99.90;;;;;;5031928;28;20060;-47
2022/09/01 04:46:47;;;;;;;41.72;22.92;;;13.70;99.90;;;;;;5016207;28;20049;-48
2022/09/01 04:49:21;;;;;;;41.10;21.55;;;13.70;99.90;;;;;;5015868;28;20273;-50
2022/09/01 04:51:50;;;;;;;39.90;23.20;;;13.70;99.90;;;;;;5014815;28;20045;-47
2022/09/01 04:54:21;;;;;;;38.83;21.90;;;13.70;99.90;;;;;;5033947;28;20045;-47
2022/09/01 04:56:51;;;;;;;44.65;21.52;;;13.70;99.90;;;;;;5053144;28;20063;-48
2022/09/01 04:59:21;;;;;;;34.70;19.00;;;13.70;99.90;;;;;;5024831;28;20079;-49
2022/09/01 05:01:54;;;;;;;36.58;18.95;;;13.60;99.90;;;;;;5011039;28;20397;-50
2022/09/01 05:04:23;;;;;;;35.70;18.95;;;13.60;99.90;;;;;;5035416;28;20049;-48
2022/09/01 05:06:59;;;;;;;36.72;18.73;;;13.60;99.90;;;;;;5036053;28;20049;-47
2022/09/01 05:09:36;;;;;;;33.08;18.02;;;13.60;99.90;;;;;;5018810;28;20045;-47
2022/09/01 05:12:26;;;;;;;30.88;16.67;;;13.70;99.90;;;;;;5024866;28;20108;-47
2022/09/01 05:14:54;;;;;;;28.63;16.55;;;13.70;99.90;;;;;;5032946;28;20141;-48
2022/09/01 05:17:24;;;;;;;29.88;17.48;;;13.70;99.90;;;;;;5016481;28;20048;-50
2022/09/01 05:19:53;;;;;;;31.10;17.15;;;13.70;99.90;;;;;;5014939;28;20034;-47
2022/09/01 05:22:21;;;;;;;27.27;16.60;;;13.70;99.90;;;;;;5015967;28;20092;-48
2022/09/01 05:25:02;;;;;;;28.92;16.48;;;13.70;99.90;;;;;;5031885;28;20092;-47
2022/09/01 05:27:30;;;;;;;26.65;16.85;;;13.70;99.90;;;;;;5002481;28;20041;-47
2022/09/01 05:29:59;;;;;;;26.58;16.52;;;13.70;99.90;;;;;;5027192;28;20456;-48
2022/09/01 05:32:26;;;;;;;27.33;17.40;;;13.70;99.90;;;;;;5012257;28;20220;-48
2022/09/01 05:34:53;;;;;;;29.85;17.23;;;13.70;99.90;;;;;;5031136;28;20099;-48
2022/09/01 05:37:20;;;;;;;29.25;16.02;;;13.70;99.90;;;;;;5012370;28;20053;-48
2022/09/01 05:39:49;;;;;;;26.52;16.25;;;13.70;99.90;;;;;;5015207;28;20032;-49
2022/09/01 05:42:16;;;;;;;25.13;15.32;;;13.80;99.90;;;;;;5012627;28;20494;-47
2022/09/01 05:44:43;;;;;;;;;;;13.80;99.90;;;;;;5035038;28;20045;-48
2022/09/01 05:47:14;;;;;;;29.60;15.30;;;13.80;99.90;;;;;;5020073;28;19943;-50
2022/09/01 05:49:49;;;;;;;25.40;14.93;;;13.80;99.90;;;;;;5014567;28;20048;-48
2022/09/01 05:52:16;;;;;;;23.85;14.48;;;13.80;99.90;;;;;;5031045;28;20073;-47
2022/09/01 05:54:44;;;;;;;24.75;14.48;;;13.80;99.90;;;;;;5030096;22;20045;-48
2022/09/01 05:57:12;;;;;;;23.83;14.10;;;14.00;99.90;;;;;;5010099;28;20042;-47
2022/09/01 05:59:59;;;;;;;35.55;14.52;;;13.90;99.90;;;;;;5014011;28;20052;-48
2022/09/01 06:02:26;;;;;;;26.30;14.25;;;14.00;99.90;;;;;;5015435;28;20099;-47
2022/09/01 06:04:56;;;;;;;22.20;13.32;;;14.10;99.90;;;;;;5017020;28;20045;-49
2022/09/01 06:07:27;;;;;;;18.80;11.90;;;14.20;99.90;;;;;;5032995;28;20132;-49
2022/09/01 06:09:58;;;;;;;19.15;12.43;;;14.30;99.90;;;;;;5029381;28;20045;-46
2022/09/01 06:12:26;;;;;;;21.20;13.13;;;14.30;99.90;;;;;;5036152;28;20044;-49
2022/09/01 06:14:54;;;;;;;19.90;12.77;;;14.30;99.90;;;;;;5070525;28;20037;-48
2022/09/01 06:17:24;;;;;;;17.58;11.98;;;14.40;99.90;;;;;;5038531;28;20045;-49
2022/09/01 06:19:56;;;;;;;22.33;12.15;;;14.40;99.90;;;;;;5034218;28;20037;-48
2022/09/01 06:22:26;;;;;;;21.63;12.30;;;14.40;99.90;;;;;;5037521;28;20497;-49
2022/09/01 06:24:54;;;;;;;18.60;12.15;;;14.50;99.90;;;;;;5054082;28;20051;-47
2022/09/01 06:27:30;;;;;;;20.17;12.35;;;14.60;99.90;;;;;;5031665;28;20053;-48
2022/09/01 06:29:58;;;;;;;20.42;12.68;;;14.70;99.90;;;;;;5033398;28;20255;-48
2022/09/01 06:32:25;;;;;;;15.20;11.05;;;14.70;99.90;;;;;;5042450;28;20033;-48
2022/09/01 06:34:56;;;;;;;20.70;11.65;;;14.70;99.90;;;;;;5041025;28;20509;-49
2022/09/01 06:37:25;;;;;;;18.52;12.40;;;14.70;99.90;;;;;;5036539;28;20095;-48
2022/09/01 06:39:56;;;;;;;19.15;12.15;;;14.70;99.90;;;;;;5053768;28;20516;-49
2022/09/01 06:42:23;;;;;;;;;;;14.80;99.90;;;;;;5054531;28;20048;-48
2022/09/01 06:44:56;;;;;;;19.88;11.82;;;14.80;99.90;;;;;;5036472;28;19920;-46
2022/09/01 06:47:23;;;;;;;19.65;11.43;;;14.80;99.90;;;;;;5037031;28;20122;-46
2022/09/01 06:49:57;;;;;;;21.25;12.30;;;14.70;99.90;;;;;;5071394;28;20040;-49
2022/09/01 06:52:25;;;;;;;19.20;10.88;;;14.70;99.90;;;;;;5043989;28;20069;-48
2022/09/01 06:54:54;;;;;;;19.73;11.40;;;14.70;99.90;;;;;;5051097;28;20103;-46
2022/09/01 06:57:26;;;;;;;18.58;10.82;;;14.80;99.90;;;;;;5036670;28;20041;-47
2022/09/01 07:00:19;;;;;;;16.40;11.02;;;14.80;99.90;;;;;;5069698;28;20400;-46
2022/09/01 07:02:53;;;;;;;15.43;10.68;;;14.80;99.90;;;;;;5037273;28;20055;-46
2022/09/01 07:05:43;;;;;;;19.90;11.23;;;14.80;99.90;;;;;;5050818;28;20111;-47
2022/09/01 07:08:48;;;;;;;14.55;9.98;;;14.80;99.90;;;;;;5050317;28;20524;-47
2022/09/01 07:11:35;;;;;;;15.32;9.48;;;15.00;99.90;;;;;;5032828;28;20048;-48
2022/09/01 07:14:24;;;;;;;13.90;9.13;;;15.00;99.90;;;;;;5033011;28;20040;-49
2022/09/01 07:16:51;;;;;;;16.05;8.00;;;15.20;99.90;;;;;;5043641;28;20536;-47
2022/09/01 07:19:38;;;;;;;12.27;8.18;;;15.50;99.90;;;;;;5026296;28;20041;-46
2022/09/01 07:22:20;;;;;;;13.10;8.30;;;15.80;99.90;;;;;;5032998;28;20049;-47
2022/09/01 07:25:11;;;;;;;9.23;6.40;;;16.10;99.90;;;;;;5028502;28;20038;-49
2022/09/01 07:27:58;;;;;;;8.32;6.68;;;16.30;99.90;;;;;;5051427;28;20048;-48
2022/09/01 07:30:27;;;;;;;9.48;6.60;;;16.50;99.90;;;;;;5031708;28;20055;-48
2022/09/01 07:32:54;;;;;;;9.63;6.50;;;16.60;99.90;;;;;;5033334;28;20436;-48
2022/09/01 07:35:23;;;;;;;9.40;5.60;;;16.80;99.90;;;;;;5031802;28;20069;-48
2022/09/01 07:37:51;;;;;;;6.78;4.60;;;16.80;99.90;;;;;;5049985;28;20090;-48
2022/09/01 07:40:42;;;;;;;7.05;5.18;;;16.70;99.90;;;;;;5023815;28;20060;-50
2022/09/01 07:43:50;;;;;;;8.80;6.05;;;16.80;99.90;;;;;;5050696;28;20276;-48
2022/09/01 07:46:50;;;;;;;8.70;5.78;;;16.80;99.90;;;;;;5044954;28;20060;-49
2022/09/01 07:49:38;;;;;;;10.55;6.57;;;16.90;99.90;;;;;;5025680;28;20060;-50
2022/09/01 07:52:26;;;;;;;11.52;6.10;;;17.10;99.90;;;;;;5032120;28;20090;-48
2022/09/01 07:54:56;;;;;;;11.38;6.82;;;17.30;99.90;;;;;;5028195;28;20048;-48
2022/09/01 07:57:22;;;;;;;8.88;6.65;;;17.40;99.90;;;;;;5041015;28;20056;-48
2022/09/01 07:59:54;;;;;;;11.63;7.68;;;17.40;99.90;;;;;;5032781;28;20048;-49
2022/09/01 08:02:39;;;;;;;11.03;7.43;;;17.20;99.90;;;;;;5050549;28;20432;-53
2022/09/01 08:05:08;;;;;;;12.55;7.80;;;17.00;99.90;;;;;;5031703;28;20048;-49
2022/09/01 08:07:36;;;;;;;11.45;7.07;;;17.00;99.90;;;;;;5047419;28;20041;-49
2022/09/01 08:10:18;;;;;;;12.05;7.10;;;16.90;99.90;;;;;;5049200;28;20148;-48
2022/09/01 08:12:48;;;;;;;13.13;7.45;;;16.90;99.90;;;;;;5035097;28;20504;-51
2022/09/01 08:15:24;;;;;;;7.68;5.95;;;16.80;99.90;;;;;;5053120;28;20037;-48
2022/09/01 08:18:12;;;;;;;9.60;7.05;;;16.60;99.90;;;;;;5032302;28;20511;-49
2022/09/01 08:20:46;;;;;;;10.55;7.38;;;16.50;99.90;;;;;;5040817;28;20051;-48
2022/09/01 08:23:53;;;;;;;9.38;6.68;;;16.50;99.90;;;;;;5031522;28;20091;-49
2022/09/01 08:26:23;;;;;;;8.52;6.30;;;16.30;99.90;;;;;;5036532;28;20065;-50
2022/09/01 08:28:52;;;;;;;13.02;7.70;;;16.10;99.90;;;;;;5052238;28;20412;-50
2022/09/01 08:31:28;;;;;;;13.60;8.10;;;16.00;99.90;;;;;;5036602;28;20071;-48
2022/09/01 08:33:58;;;;;;;12.80;7.65;;;15.80;99.90;;;;;;5038499;28;20048;-48
2022/09/01 08:36:27;;;;;;;11.48;8.02;;;15.70;99.90;;;;;;5047876;28;20044;-49
2022/09/01 08:38:54;;;;;;;11.20;7.40;;;15.80;99.90;;;;;;5074579;28;20059;-49
2022/09/01 08:41:41;;;;;;;13.23;7.82;;;15.80;99.90;;;;;;5034933;28;20041;-46
2022/09/01 08:44:40;;;;;;;9.82;7.22;;;15.90;99.90;;;;;;5048514;28;20073;-48
2022/09/01 08:47:10;;;;;;;16.13;8.35;;;16.20;99.90;;;;;;5053006;28;20055;-51
2022/09/01 08:49:45;;;;;;;9.40;6.35;;;16.60;99.90;;;;;;5053611;28;20509;-49
2022/09/01 08:53:08;;;;;;;10.15;6.03;;;16.90;99.90;;;;;;5027285;28;20052;-49
2022/09/01 08:55:42;;;;;;;6.53;5.57;;;17.00;99.90;;;;;;5047827;28;20040;-48
2022/09/01 08:58:14;;;;;;;8.10;6.07;;;17.20;99.90;;;;;;5055889;28;20135;-51
2022/09/01 09:01:26;;;;;;;7.47;5.32;;;17.30;99.90;;;;;;5049269;28;20108;-50
2022/09/01 09:03:58;;;;;;;6.70;4.97;;;17.60;99.90;;;;;;5054701;28;20064;-48
2022/09/01 09:06:40;;;;;;;6.60;5.22;;;17.80;99.90;;;;;;5052903;28;20501;-48
2022/09/01 09:09:08;;;;;;;6.45;4.65;;;18.00;99.90;;;;;;5053574;28;20052;-49
2022/09/01 09:12:08;;;;;;;6.43;4.28;;;17.80;99.90;;;;;;5053222;28;20041;-48
2022/09/01 09:14:53;;;;;;;8.38;5.53;;;17.70;99.90;;;;;;5050551;28;20044;-49
2022/09/01 09:17:24;;;;;;;6.90;5.05;;;17.70;99.90;;;;;;5053570;28;20049;-49
2022/09/01 09:19:52;;;;;;;7.95;4.93;;;17.70;99.90;;;;;;5053040;28;20041;-49
2022/09/01 09:22:19;;;;;;;6.05;5.18;;;17.80;99.90;;;;;;5048489;28;20060;-49
2022/09/01 09:25:09;;;;;;;7.80;5.32;;;18.00;99.90;;;;;;5052138;28;20068;-49
2022/09/01 09:27:37;;;;;;;6.15;5.15;;;18.00;99.90;;;;;;5052886;28;20524;-49
2022/09/01 09:30:08;;;;;;;6.88;5.63;;;17.90;99.90;;;;;;5048737;28;20525;-50
2022/09/01 09:32:51;;;;;;;9.23;5.78;;;17.70;99.90;;;;;;5045969;28;20048;-49
2022/09/01 09:35:43;;;;;;;8.43;6.32;;;17.60;99.90;;;;;;5048743;28;20060;-51
2022/09/01 09:38:19;;;;;;;6.18;5.30;;;17.70;99.90;;;;;;5045589;28;20063;-49
2022/09/01 09:41:07;;;;;;;7.78;5.22;;;17.80;99.90;;;;;;5052257;28;20041;-48
2022/09/01 09:43:59;;;;;;;7.35;6.00;;;17.70;99.90;;;;;;5052221;28;20057;-50
2022/09/01 09:46:44;;;;;;;7.45;5.00;;;17.90;99.90;;;;;;5051673;28;20057;-49
2022/09/01 09:49:32;;;;;;;8.98;6.20;;;17.80;99.90;;;;;;5053045;28;20072;-49
2022/09/01 09:52:09;;;;;;;6.80;4.70;;;17.80;99.90;;;;;;5052364;28;20044;-49
2022/09/01 09:54:58;;;;;;;7.07;5.53;;;17.90;99.90;;;;;;5054025;28;20070;-49
2022/09/01 09:57:25;;;;;;;9.57;6.57;;;17.90;99.90;;;;;;5051789;28;20571;-48
2022/09/01 09:59:54;;;;;;;6.90;5.90;;;17.90;99.90;;;;;;5052756;28;20683;-50
2022/09/01 10:02:32;;;;;;;7.32;5.97;;;17.90;99.90;;;;;;5052975;28;20545;-50
2022/09/01 10:05:20;;;;;;;6.88;5.65;;;18.00;99.90;;;;;;5046930;28;20041;-48
2022/09/01 10:07:48;;;;;;;8.25;6.25;;;18.10;99.90;;;;;;5053053;28;20045;-49
2022/09/01 10:10:47;;;;;;;6.97;5.82;;;18.10;99.90;;;;;;5052700;28;20370;-49
2022/09/01 10:13:29;;;;;;;8.65;6.13;;;18.00;99.90;;;;;;5051803;28;20440;-52
2022/09/01 10:16:23;;;;;;;8.63;5.90;;;17.90;99.90;;;;;;5051740;28;20051;-48
2022/09/01 10:18:59;;;;;;;7.65;5.50;;;17.90;99.90;;;;;;5052573;28;20128;-48
2022/09/01 10:21:29;;;;;;;9.25;6.45;;;18.00;99.90;;;;;;5047753;28;20049;-48
2022/09/01 10:23:59;;;;;;;6.57;5.43;;;17.90;99.90;;;;;;5051952;28;20049;-49
2022/09/01 10:26:51;;;;;;;7.23;5.10;;;18.00;99.90;;;;;;5052387;28;20045;-49
2022/09/01 10:29:39;;;;;;;6.78;5.07;;;18.40;99.90;;;;;;5051687;28;20350;-49
2022/09/01 10:32:19;;;;;;;7.63;5.38;;;18.70;99.90;;;;;;5052274;28;20070;-49
2022/09/01 10:35:03;;;;;;;7.10;5.22;;;18.90;99.90;;;;;;5050202;28;20049;-51
2022/09/01 10:37:31;;;;;;;9.18;6.07;;;19.00;99.90;;;;;;5049802;28;20099;-49
2022/09/01 10:40:11;;;;;;;10.85;6.35;;;19.20;99.90;;;;;;5051244;28;20087;-49
2022/09/01 10:42:44;;;;;;;8.68;7.13;;;19.30;99.90;;;;;;5046497;28;20094;-49
2022/09/01 10:45:36;;;;;;;9.05;6.32;;;19.20;99.90;;;;;;5045599;28;20061;-48
2022/09/01 10:48:19;;;;;;;10.77;7.72;;;19.20;99.90;;;;;;5059709;28;20392;-50
2022/09/01 10:51:14;;;;;;;10.88;7.72;;;19.10;99.90;;;;;;5070720;28;20040;-48
2022/09/01 10:53:54;;;;;;;10.40;8.18;;;19.10;99.90;;;;;;5045124;28;20051;-48
2022/09/01 10:56:42;;;;;;;12.25;8.35;;;18.90;99.90;;;;;;5069523;28;20408;-49
2022/09/01 10:59:23;;;;;;;12.05;8.20;;;18.70;99.90;;;;;;5072009;28;20447;-48
2022/09/01 11:02:15;;;;;;;12.25;7.85;;;18.80;99.90;;;;;;5050401;28;20049;-48
2022/09/01 11:04:58;;;;;;;13.45;8.48;;;18.90;99.90;;;;;;5051445;28;20390;-49
2022/09/01 11:07:37;;;;;;;12.50;9.20;;;18.70;99.90;;;;;;5051513;28;20152;-52
2022/09/01 11:10:34;;;;;;;11.98;7.85;;;18.70;99.90;;;;;;5049859;28;20566;-48
2022/09/01 11:13:32;;;;;;;9.35;7.22;;;18.80;99.90;;;;;;5051179;28;20041;-50
2022/09/01 11:16:29;;;;;;;13.18;8.60;;;19.00;99.90;;;;;;5049905;28;20037;-48
2022/09/01 11:19:34;;;;;;;11.88;7.82;;;19.10;99.90;;;;;;5047886;28;20095;-48
2022/09/01 11:22:21;;;;;;;12.05;8.02;;;18.80;99.90;;;;;;5047240;28;20095;-48
2022/09/01 11:25:09;;;;;;;13.00;8.57;;;18.50;99.90;;;;;;5049809;28;20079;-48
2022/09/01 11:27:47;;;;;;;11.38;7.88;;;18.50;99.90;;;;;;5051168;28;20049;-48
2022/09/01 11:30:30;;;;;;;9.77;8.00;;;18.80;99.90;;;;;;5043713;28;20044;-48
2022/09/01 11:33:15;;;;;;;9.15;6.97;;;19.10;99.90;;;;;;5051023;28;20068;-49
2022/09/01 11:35:45;;;;;;;7.43;6.28;;;19.30;99.90;;;;;;5049114;28;20041;-48
2022/09/01 11:38:15;;;;;;;7.85;6.97;;;19.30;99.90;;;;;;5051154;28;20041;-50
2022/09/01 11:40:42;;;;;;;10.32;6.93;;;19.40;99.90;;;;;;5050131;28;20067;-50
2022/09/01 11:43:14;;;;;;;9.30;7.22;;;19.40;99.90;;;;;;5050391;28;20167;-48
2022/09/01 11:46:10;;;;;;;11.25;7.45;;;19.20;99.90;;;;;;5054246;28;20400;-48
2022/09/01 11:48:38;;;;;;;10.32;7.45;;;19.20;99.90;;;;;;5050998;28;20045;-49
2022/09/01 11:51:05;;;;;;;7.03;5.63;;;19.30;99.90;;;;;;5049454;28;20049;-49
2022/09/01 11:53:32;;;;;;;9.57;7.10;;;19.40;99.90;;;;;;5050437;28;20424;-52
2022/09/01 11:59:59;;;;;;;6.97;5.97;;;19.70;99.90;;;;;;5001417;28;20109;-48
2022/09/01 12:02:32;;;;;;;8.15;6.80;;;20.10;99.90;;;;;;5010505;28;20430;-48
2022/09/01 12:05:32;;;;;;;9.00;6.30;;;20.00;99.90;;;;;;5010786;28;20054;-48
2022/09/01 12:08:04;;;;;;;12.77;6.65;;;19.50;99.90;;;;;;5010905;28;20414;-48
2022/09/01 12:10:32;;;;;;;9.10;6.50;;;19.10;99.90;;;;;;5011421;28;20187;-48
2022/09/01 12:13:18;;;;;;;9.20;7.13;;;19.20;99.90;;;;;;5011033;28;20494;-49
2022/09/01 12:15:57;;;;;;;8.75;6.60;;;19.60;99.90;;;;;;5010769;28;20050;-49
2022/09/01 12:18:46;;;;;;;9.35;6.70;;;19.80;99.90;;;;;;5009472;28;20042;-48
2022/09/01 12:21:22;;;;;;;8.55;6.10;;;19.80;99.90;;;;;;5011108;28;20053;-48
2022/09/01 12:23:49;;;;;;;9.00;6.72;;;19.70;99.90;;;;;;5010236;28;20041;-48
2022/09/01 12:26:25;;;;;;;6.88;5.68;;;19.60;99.90;;;;;;5009789;28;20056;-48
2022/09/01 12:28:52;;;;;;;8.02;6.53;;;19.70;99.90;;;;;;5011069;28;20038;-49
2022/09/01 12:31:22;;;;;;;12.85;6.93;;;19.80;99.90;;;;;;5010908;28;20052;-48
2022/09/01 12:33:50;;;;;;;10.90;6.78;;;20.00;99.90;;;;;;5010746;28;20052;-48
2022/09/01 12:36:20;;;;;;;6.47;5.80;;;19.90;99.90;;;;;;5009021;28;20042;-47
2022/09/01 12:38:47;;;;;;;14.63;6.68;;;20.30;99.90;;;;;;5010802;28;20048;-48
2022/09/01 12:41:33;;;;;;;;;;;20.50;99.90;;;;;;5002274;28;20379;-49
2022/09/01 12:44:34;;;;;;;14.90;6.10;;;20.30;99.90;;;;;;5008423;28;20341;-48
2022/09/01 12:47:07;;;;;;;6.60;5.45;;;19.90;99.90;;;;;;5010635;28;20052;-48
2022/09/01 12:49:43;;;;;;;6.40;5.18;;;19.90;99.90;;;;;;5010567;28;20100;-49
2022/09/01 12:52:21;;;;;;;6.68;5.53;;;20.10;99.90;;;;;;5009605;28;20553;-48
2022/09/01 12:54:51;;;;;;;8.57;5.32;;;20.40;99.90;;;;;;5010684;28;20061;-48
2022/09/01 12:57:48;;;;;;;5.80;4.63;;;20.70;99.90;;;;;;5009831;28;20486;-52
2022/09/01 13:00:22;;;;;;;7.70;4.93;;;20.80;99.90;;;;;;5000927;28;20068;-48
2022/09/01 13:03:01;;;;;;;8.10;5.30;;;20.90;99.90;;;;;;5014196;28;20033;-48
2022/09/01 13:05:32;;;;;;;6.85;4.75;;;21.00;99.90;;;;;;5013208;28;20053;-48
2022/09/01 13:08:13;;;;;;;7.20;5.13;;;20.70;99.90;;;;;;5014116;28;20050;-48
2022/09/01 13:10:52;;;;;;;7.10;5.32;;;20.70;99.90;;;;;;5006827;28;20053;-48
2022/09/01 13:13:22;;;;;;;6.97;5.38;;;20.70;99.90;;;;;;5013962;28;20060;-49
2022/09/01 13:15:52;;;;;;;7.70;4.35;;;21.00;99.90;;;;;;5013444;28;20042;-48
2022/09/01 13:18:21;;;;;;;5.38;4.50;;;21.30;99.90;;;;;;5011242;28;20490;-49
2022/09/01 13:20:49;;;;;;;4.93;4.43;;;21.20;99.90;;;;;;5013790;28;20112;-48
2022/09/01 13:23:16;;;;;;;4.53;4.13;;;21.20;99.90;;;;;;5013665;28;20052;-49